createdAt,value
2023-04-19T00:00:39.846Z,100.00
2023-04-19T00:03:41.466Z,100.00
2023-04-19T00:06:43.052Z,100.00
2023-04-19T00:09:44.602Z,100.00
2023-04-19T00:12:46.226Z,100.00
2023-04-19T00:15:47.913Z,100.00
2023-04-19T00:18:49.462Z,100.00
2023-04-19T00:21:51.022Z,100.00
2023-04-19T00:24:53.158Z,100.00
2023-04-19T00:27:54.666Z,100.00
2023-04-19T00:30:56.330Z,100.00
2023-04-19T00:33:57.876Z,100.00
2023-04-19T00:36:59.420Z,100.00
2023-04-19T00:40:01.131Z,100.00
2023-04-19T00:43:02.816Z,100.00
2023-04-19T00:46:04.368Z,100.00
2023-04-19T00:49:06.220Z,100.00
2023-04-19T00:52:08.393Z,100.00
2023-04-19T00:55:10.109Z,100.00
2023-04-19T00:58:11.642Z,100.00
2023-04-19T01:01:13.228Z,100.00
2023-04-19T01:04:15.886Z,100.00
2023-04-19T01:07:18.071Z,100.00
2023-04-19T01:10:19.582Z,100.00
2023-04-19T01:13:21.085Z,100.00
2023-04-19T01:16:24.976Z,100.00
2023-04-19T01:19:26.845Z,100.00
2023-04-19T01:22:30.076Z,100.00
2023-04-19T01:25:31.604Z,100.00
2023-04-19T01:28:33.234Z,100.00
2023-04-19T01:31:34.849Z,100.00
2023-04-19T01:34:36.444Z,100.00
2023-04-19T01:37:38.049Z,100.00
2023-04-19T01:40:39.646Z,100.00
2023-04-19T01:43:41.123Z,100.00
2023-04-19T01:46:42.862Z,100.00
2023-04-19T01:49:44.510Z,100.00
2023-04-19T01:52:46.089Z,100.00
2023-04-19T01:55:47.623Z,100.00
2023-04-19T01:58:49.149Z,100.00
2023-04-19T02:01:50.914Z,100.00
2023-04-19T02:04:52.452Z,100.00
2023-04-19T02:07:53.961Z,100.00
2023-04-19T02:10:55.453Z,100.00
2023-04-19T02:13:57.089Z,100.00
2023-04-19T02:16:58.720Z,100.00
2023-04-19T02:20:00.341Z,100.00
2023-04-19T02:23:01.917Z,100.00
2023-04-19T02:26:03.484Z,100.00
2023-04-19T02:29:06.729Z,100.00
2023-04-19T02:32:08.674Z,100.00
2023-04-19T02:35:10.237Z,100.00
2023-04-19T02:38:11.787Z,100.00
2023-04-19T02:41:13.357Z,100.00
2023-04-19T02:44:15.045Z,100.00
2023-04-19T02:47:16.895Z,100.00
2023-04-19T02:50:18.452Z,100.00
2023-04-19T02:53:19.956Z,100.00
2023-04-19T02:56:21.479Z,100.00
2023-04-19T02:59:23.046Z,100.00
2023-04-19T03:02:25.492Z,100.00
2023-04-19T03:05:27.153Z,100.00
2023-04-19T03:08:28.808Z,100.00
2023-04-19T03:11:30.384Z,100.00
2023-04-19T03:14:33.841Z,100.00
2023-04-19T03:17:35.977Z,100.00
2023-04-19T03:20:37.558Z,100.00
2023-04-19T03:23:39.102Z,100.00
2023-04-19T03:26:40.747Z,100.00
2023-04-19T03:29:42.338Z,100.00
2023-04-19T03:32:44.054Z,100.00
2023-04-19T03:35:46.029Z,100.00
2023-04-19T03:38:47.522Z,100.00
2023-04-19T03:41:49.062Z,100.00
2023-04-19T03:44:50.609Z,100.00
2023-04-19T03:47:52.192Z,100.00
2023-04-19T03:50:53.727Z,100.00
2023-04-19T03:53:55.235Z,100.00
2023-04-19T03:56:57.138Z,100.00
2023-04-19T03:59:58.718Z,100.00
2023-04-19T04:03:00.417Z,100.00
2023-04-19T04:06:02.398Z,100.00
2023-04-19T04:09:06.116Z,100.00
2023-04-19T04:12:07.739Z,100.00
2023-04-19T04:15:10.185Z,100.00
2023-04-19T04:18:11.776Z,100.00
2023-04-19T04:21:13.453Z,100.00
2023-04-19T04:24:15.740Z,100.00
2023-04-19T04:27:21.228Z,100.00
2023-04-19T04:30:23.270Z,100.00
2023-04-19T04:33:27.585Z,100.00
2023-04-19T04:36:29.776Z,100.00
2023-04-19T04:39:31.390Z,100.00
2023-04-19T04:42:33.521Z,100.00
2023-04-19T04:45:35.547Z,100.00
2023-04-19T04:48:37.066Z,100.00
2023-04-19T04:51:38.584Z,100.00
2023-04-19T04:54:40.480Z,100.00
2023-04-19T04:57:42.050Z,100.00
2023-04-19T05:00:43.739Z,100.00
2023-04-19T05:03:45.735Z,100.00
2023-04-19T05:06:47.291Z,100.00
2023-04-19T05:09:48.845Z,100.00
2023-04-19T05:12:50.366Z,100.00
2023-04-19T05:15:51.953Z,100.00
2023-04-19T05:18:53.518Z,100.00
2023-04-19T05:21:55.079Z,100.00
2023-04-19T05:24:56.665Z,100.00
2023-04-19T05:27:58.188Z,100.00
2023-04-19T05:30:59.719Z,100.00
2023-04-19T05:34:01.348Z,100.00
2023-04-19T05:37:03.427Z,100.00
2023-04-19T05:40:05.987Z,100.00
2023-04-19T05:43:07.517Z,100.00
2023-04-19T05:46:09.089Z,100.00
2023-04-19T05:49:10.648Z,100.00
2023-04-19T05:52:12.210Z,100.00
2023-04-19T05:55:13.894Z,100.00
2023-04-19T05:58:15.720Z,100.00
2023-04-19T06:01:17.247Z,100.00
2023-04-19T06:04:19.264Z,100.00
2023-04-19T06:07:31.026Z,100.00
2023-04-19T06:10:48.784Z,100.00
2023-04-19T06:13:55.894Z,100.00
2023-04-19T06:16:57.445Z,100.00
2023-04-19T06:19:59.147Z,100.00
2023-04-19T06:23:00.739Z,100.00
2023-04-19T06:26:02.285Z,100.00
2023-04-19T06:29:04.331Z,100.00
2023-04-19T06:32:06.086Z,100.00
2023-04-19T06:35:08.261Z,100.00
2023-04-19T06:38:09.941Z,100.00
2023-04-19T06:41:11.593Z,100.00
2023-04-19T06:44:13.439Z,100.00
2023-04-19T06:47:15.196Z,100.00
2023-04-19T06:50:16.895Z,100.00
2023-04-19T06:53:18.425Z,100.00
2023-04-19T06:56:24.357Z,100.00
2023-04-19T06:59:28.280Z,100.00
2023-04-19T07:02:30.042Z,100.00
2023-04-19T07:05:31.782Z,100.00
2023-04-19T07:08:46.425Z,100.00
2023-04-19T07:11:51.429Z,100.00
2023-04-19T07:14:56.416Z,100.00
2023-04-19T07:17:58.093Z,100.00
2023-04-19T07:20:59.654Z,100.00
2023-04-19T07:24:01.233Z,100.00
2023-04-19T07:27:02.877Z,100.00
2023-04-19T07:30:04.720Z,100.00
2023-04-19T07:33:08.579Z,100.00
2023-04-19T07:36:10.546Z,100.00
2023-04-19T07:39:13.312Z,100.00
2023-04-19T07:42:14.853Z,100.00
2023-04-19T07:45:16.821Z,100.00
2023-04-19T07:48:20.969Z,100.00
2023-04-19T07:51:24.903Z,100.00
2023-04-19T07:54:26.459Z,100.00
2023-04-19T07:57:27.976Z,100.00
2023-04-19T08:00:35.664Z,100.00
2023-04-19T08:03:37.863Z,100.00
2023-04-19T08:06:39.944Z,100.00
2023-04-19T08:09:41.659Z,100.00
2023-04-19T08:12:50.731Z,100.00
2023-04-19T08:16:41.460Z,100.00
2023-04-19T08:19:26.516Z,100.00
2023-04-19T08:22:28.172Z,100.00
2023-04-19T08:25:29.956Z,100.00
2023-04-19T08:28:31.491Z,100.00
2023-04-19T08:31:33.016Z,100.00
2023-04-19T08:34:38.270Z,100.00
2023-04-19T08:37:39.844Z,100.00
2023-04-19T08:40:55.201Z,100.00
2023-04-19T08:43:57.114Z,100.00
2023-04-19T08:47:01.837Z,100.00
2023-04-19T08:50:17.547Z,100.00
2023-04-19T08:53:29.076Z,100.00
2023-04-19T08:56:35.437Z,100.00
2023-04-19T08:59:37.369Z,100.00
2023-04-19T09:02:52.083Z,100.00
2023-04-19T09:05:54.624Z,100.00
2023-04-19T09:12:27.134Z,100.00
2023-04-19T09:15:45.538Z,100.00
2023-04-19T09:19:02.519Z,100.00
2023-04-19T09:22:13.638Z,100.00
2023-04-19T09:25:41.918Z,100.00
2023-04-19T09:28:56.969Z,100.00
2023-04-19T09:32:01.323Z,100.00
2023-04-19T09:35:02.933Z,100.00
2023-04-19T09:38:06.948Z,100.00
2023-04-19T09:41:08.980Z,100.00
2023-04-19T09:44:44.540Z,100.00
2023-04-19T09:47:35.161Z,100.00
2023-04-19T09:50:46.749Z,100.00
2023-04-19T09:53:55.509Z,100.00
2023-04-19T09:56:58.383Z,100.00
2023-04-19T10:00:01.454Z,100.00
2023-04-19T10:03:03.018Z,100.00
2023-04-19T10:06:10.671Z,100.00
2023-04-19T10:09:18.397Z,100.00
2023-04-19T10:12:45.564Z,100.00
2023-04-19T10:15:49.947Z,100.00
2023-04-19T10:18:55.293Z,100.00
2023-04-19T10:21:56.924Z,100.00
2023-04-19T10:25:11.349Z,100.00
2023-04-19T10:28:12.924Z,100.00
2023-04-19T10:31:14.522Z,100.00
2023-04-19T10:34:17.740Z,100.00
2023-04-19T10:37:21.987Z,100.00
2023-04-19T10:40:51.867Z,100.00
2023-04-19T10:43:59.195Z,100.00
2023-04-19T10:47:00.734Z,100.00
2023-04-19T10:50:04.838Z,100.00
2023-04-19T10:53:45.506Z,100.00
2023-04-19T10:57:06.174Z,100.00
2023-04-19T11:00:25.733Z,100.00
2023-04-19T11:03:45.641Z,100.00
2023-04-19T11:06:53.601Z,100.00
2023-04-19T11:09:55.337Z,100.00
2023-04-19T11:12:56.948Z,100.00
2023-04-19T11:16:04.525Z,100.00
2023-04-19T11:19:06.053Z,100.00
2023-04-19T11:22:07.620Z,100.00
2023-04-19T11:25:10.589Z,100.00
2023-04-19T11:28:12.274Z,100.00
2023-04-19T11:31:13.848Z,100.00
2023-04-19T11:34:16.009Z,100.00
2023-04-19T11:37:17.761Z,100.00
2023-04-19T11:40:21.532Z,100.00
2023-04-19T11:43:23.035Z,100.00
2023-04-19T11:46:24.703Z,100.00
2023-04-19T11:49:27.984Z,100.00
2023-04-19T11:52:29.497Z,100.00
2023-04-19T11:55:33.206Z,100.00
2023-04-19T11:58:45.321Z,100.00
2023-04-19T12:01:46.928Z,100.00
2023-04-19T12:04:48.773Z,100.00
2023-04-19T12:08:06.644Z,100.00
2023-04-19T12:11:08.210Z,100.00
2023-04-19T12:14:16.976Z,100.00
2023-04-19T12:17:21.585Z,100.00
2023-04-19T12:20:30.303Z,100.00
2023-04-19T12:23:31.932Z,100.00
2023-04-19T12:26:34.623Z,100.00
2023-04-19T12:29:36.326Z,100.00
2023-04-19T12:32:37.891Z,100.00
2023-04-19T12:35:39.843Z,100.00
2023-04-19T12:38:41.579Z,100.00
2023-04-19T12:41:43.112Z,100.00
2023-04-19T12:44:44.649Z,100.00
2023-04-19T12:47:47.348Z,100.00
2023-04-19T12:50:48.964Z,100.00
2023-04-19T12:53:51.258Z,100.00
2023-04-19T12:56:52.850Z,100.00
2023-04-19T12:59:54.393Z,100.00
2023-04-19T13:02:56.273Z,100.00
2023-04-19T13:05:57.949Z,100.00
2023-04-19T13:09:01.037Z,100.00
2023-04-19T13:12:03.958Z,100.00
2023-04-19T13:15:06.036Z,100.00
2023-04-19T13:18:07.483Z,100.00
2023-04-19T13:21:09.065Z,100.00
2023-04-19T13:24:10.658Z,100.00
2023-04-19T13:27:12.303Z,100.00
2023-04-19T13:30:14.358Z,100.00
2023-04-19T13:33:16.033Z,100.00
2023-04-19T13:36:17.964Z,100.00
2023-04-19T13:39:19.531Z,100.00
2023-04-19T13:42:21.079Z,100.00
2023-04-19T13:45:22.702Z,100.00
2023-04-19T13:48:27.152Z,100.00
2023-04-19T13:51:38.806Z,100.00
2023-04-19T13:54:44.291Z,100.00
2023-04-19T13:57:45.851Z,100.00
2023-04-19T14:00:48.398Z,100.00
2023-04-19T14:03:50.135Z,100.00
2023-04-19T14:06:51.805Z,100.00
2023-04-19T14:09:53.471Z,100.00
2023-04-19T14:12:55.270Z,100.00
2023-04-19T14:15:56.885Z,100.00
2023-04-19T14:18:58.584Z,100.00
2023-04-19T14:22:00.307Z,100.00
2023-04-19T14:25:02.269Z,100.00
2023-04-19T14:28:03.996Z,100.00
2023-04-19T14:31:05.553Z,100.00
2023-04-19T14:34:07.122Z,100.00
2023-04-19T14:37:08.952Z,100.00
2023-04-19T14:40:11.179Z,100.00
2023-04-19T14:43:14.722Z,100.00
2023-04-19T14:46:16.271Z,100.00
2023-04-19T14:49:18.027Z,100.00
2023-04-19T14:52:19.699Z,100.00
2023-04-19T14:55:22.690Z,100.00
2023-04-19T14:58:24.276Z,100.00
2023-04-19T15:01:25.931Z,100.00
2023-04-19T15:04:27.643Z,100.00
2023-04-19T15:07:29.308Z,100.00
2023-04-19T15:10:31.002Z,100.00
2023-04-19T15:13:33.904Z,100.00
2023-04-19T15:16:35.908Z,100.00
2023-04-19T15:19:38.205Z,100.00
2023-04-19T15:22:39.833Z,100.00
2023-04-19T15:25:41.568Z,100.00
2023-04-19T15:28:43.119Z,100.00
2023-04-19T15:31:44.820Z,100.00
2023-04-19T15:34:46.449Z,100.00
2023-04-19T15:37:48.149Z,100.00
2023-04-19T15:40:49.821Z,100.00
2023-04-19T15:43:51.532Z,100.00
2023-04-19T15:46:53.158Z,100.00
2023-04-19T15:49:54.736Z,100.00
2023-04-19T15:52:56.423Z,100.00
2023-04-19T15:55:58.139Z,100.00
2023-04-19T15:58:59.822Z,100.00
2023-04-19T16:02:01.421Z,100.00
2023-04-19T16:05:03.328Z,100.00
2023-04-19T16:08:06.446Z,100.00
2023-04-19T16:11:08.014Z,100.00
2023-04-19T16:14:09.570Z,100.00
2023-04-19T16:17:11.122Z,100.00
2023-04-19T16:20:13.187Z,100.00
2023-04-19T16:23:17.138Z,100.00
2023-04-19T16:26:24.378Z,100.00
2023-04-19T16:29:26.118Z,100.00
2023-04-19T16:32:27.984Z,100.00
2023-04-19T16:35:33.679Z,100.00
2023-04-19T16:38:39.282Z,100.00
2023-04-19T16:42:01.171Z,100.00
2023-04-19T16:45:03.143Z,100.00
2023-04-19T16:48:07.384Z,100.00
2023-04-19T16:51:09.041Z,100.00
2023-04-19T16:54:10.722Z,100.00
2023-04-19T16:57:12.418Z,100.00
2023-04-19T17:00:14.679Z,100.00
2023-04-19T17:03:20.076Z,100.00
2023-04-19T17:06:24.112Z,100.00
2023-04-19T17:09:25.770Z,100.00
2023-04-19T17:12:27.321Z,100.00
2023-04-19T17:15:28.962Z,100.00
2023-04-19T17:18:30.679Z,100.00
2023-04-19T17:21:32.411Z,100.00
2023-04-19T17:24:34.141Z,100.00
2023-04-19T17:27:35.741Z,100.00
2023-04-19T17:30:37.359Z,100.00
2023-04-19T17:33:38.949Z,100.00
2023-04-19T17:36:42.106Z,100.00
2023-04-19T17:39:43.710Z,100.00
2023-04-19T17:42:45.277Z,100.00
2023-04-19T17:45:46.823Z,100.00
2023-04-19T17:48:48.447Z,100.00
2023-04-19T17:51:49.998Z,100.00
2023-04-19T17:54:51.565Z,100.00
2023-04-19T17:57:53.274Z,100.00
2023-04-19T18:00:54.802Z,100.00
2023-04-19T18:03:56.632Z,100.00
2023-04-19T18:06:58.377Z,100.00
2023-04-19T18:09:59.946Z,100.00
2023-04-19T18:13:01.541Z,100.00
2023-04-19T18:16:03.478Z,100.00
2023-04-19T18:19:05.233Z,100.00
2023-04-19T18:22:06.825Z,100.00
2023-04-19T18:25:08.903Z,100.00
2023-04-19T18:28:10.700Z,100.00
2023-04-19T18:31:12.205Z,100.00
2023-04-19T18:34:13.926Z,100.00
2023-04-19T18:37:16.224Z,100.00
2023-04-19T18:40:18.934Z,100.00
2023-04-19T18:43:20.561Z,100.00
2023-04-19T18:46:24.975Z,100.00
2023-04-19T18:49:26.599Z,100.00
2023-04-19T18:52:28.157Z,100.00
2023-04-19T18:55:31.088Z,100.00
2023-04-19T18:58:32.770Z,100.00
2023-04-19T19:01:34.388Z,100.00
2023-04-19T19:07:41.595Z,100.00
2023-04-19T19:13:47.907Z,100.00
2023-04-19T19:16:52.585Z,100.00
2023-04-19T19:19:54.532Z,100.00
2023-04-19T19:22:56.479Z,100.00
2023-04-19T19:25:58.068Z,100.00
2023-04-19T19:29:01.037Z,100.00
2023-04-19T19:32:04.982Z,100.00
2023-04-19T19:35:09.655Z,100.00
2023-04-19T19:38:12.080Z,100.00
2023-04-19T19:44:18.636Z,100.00
2023-04-19T19:47:20.253Z,100.00
2023-04-19T19:50:46.663Z,100.00
2023-04-19T19:53:45.674Z,100.00
2023-04-19T19:57:25.190Z,100.00
2023-04-19T20:00:36.837Z,100.00
2023-04-19T20:03:37.612Z,100.00
2023-04-19T20:09:44.135Z,100.00
2023-04-19T20:12:46.916Z,100.00
2023-04-19T20:15:48.515Z,100.00
2023-04-19T20:18:50.113Z,100.00
2023-04-19T20:21:51.646Z,100.00
2023-04-19T20:24:53.192Z,100.00
2023-04-19T20:27:55.047Z,100.00
2023-04-19T20:30:56.576Z,100.00
2023-04-19T20:33:58.133Z,100.00
2023-04-19T20:36:59.638Z,100.00
2023-04-19T20:40:01.229Z,100.00
2023-04-19T20:43:03.292Z,100.00
2023-04-19T20:46:04.937Z,100.00
2023-04-19T20:49:06.493Z,100.00
2023-04-19T20:52:10.623Z,100.00
2023-04-19T20:55:12.231Z,100.00
2023-04-19T20:58:13.848Z,100.00
2023-04-19T21:01:17.498Z,100.00
2023-04-19T21:04:19.256Z,98.53
2023-04-19T21:07:20.984Z,97.81
2023-04-19T21:10:22.539Z,99.31
2023-04-19T21:13:24.047Z,100.00
2023-04-19T21:16:25.600Z,100.00
2023-04-19T21:19:27.166Z,99.33
2023-04-19T21:22:30.089Z,100.00
2023-04-19T21:25:31.645Z,100.00
2023-04-19T21:28:36.144Z,100.00
2023-04-19T21:31:37.725Z,100.00
2023-04-19T21:34:39.292Z,100.00
2023-04-19T21:37:40.851Z,100.00
2023-04-19T21:40:42.708Z,100.00
2023-04-19T21:43:44.400Z,100.00
2023-04-19T21:46:46.282Z,100.00
2023-04-19T21:49:47.962Z,100.00
2023-04-19T21:52:49.478Z,100.00
2023-04-19T21:55:51.204Z,100.00
2023-04-19T21:58:52.832Z,100.00
2023-04-19T22:01:54.407Z,100.00
2023-04-19T22:04:55.916Z,98.31
2023-04-19T22:07:57.853Z,96.48
2023-04-19T22:11:00.351Z,98.69
2023-04-19T22:14:05.046Z,100.00
2023-04-19T22:17:10.074Z,100.00
2023-04-19T22:20:15.821Z,100.00
2023-04-19T22:23:17.390Z,100.00
2023-04-19T22:26:19.577Z,100.00
2023-04-19T22:29:21.081Z,100.00
2023-04-19T22:32:22.816Z,100.00
2023-04-19T22:35:24.517Z,100.00
2023-04-19T22:38:26.586Z,100.00
2023-04-19T22:41:28.196Z,100.00
2023-04-19T22:44:29.772Z,100.00
2023-04-19T22:47:32.979Z,100.00
2023-04-19T22:50:34.642Z,100.00
2023-04-19T22:53:38.680Z,100.00
2023-04-19T22:56:40.395Z,100.00
2023-04-19T22:59:44.537Z,100.00
2023-04-19T23:02:46.199Z,100.00
2023-04-19T23:05:48.013Z,100.00
2023-04-19T23:08:50.521Z,100.00
2023-04-19T23:11:51.907Z,100.00
2023-04-19T23:14:53.434Z,100.00
2023-04-19T23:17:55.026Z,100.00
2023-04-19T23:20:59.477Z,100.00
2023-04-19T23:24:01.053Z,100.00
2023-04-19T23:27:03.480Z,100.00
2023-04-19T23:30:05.821Z,100.00
2023-04-19T23:33:07.491Z,100.00
2023-04-19T23:36:09.183Z,100.00
2023-04-19T23:39:10.813Z,100.00
2023-04-19T23:42:12.303Z,100.00
2023-04-19T23:45:13.850Z,100.00
2023-04-19T23:48:15.580Z,100.00
2023-04-19T23:51:17.076Z,100.00
2023-04-19T23:54:21.297Z,100.00
2023-04-19T23:57:22.851Z,100.00
